Time;durP1;ratioP1;P1;durP2;ratioP2;P2;SDS_P1;SDS_P2;PMS_P1;PMS_P2;Temp;Humidity;BMP_temperature;BMP_pressure;BME280_temperature;BME280_humidity;BME280_pressure;Samples;Min_cycle;Max_cycle;Signal;HPM_P1;HPM_P2
2022/10/22 00:01:19;;;;;;;15.48;8.18;;;;;;;;;;4954504;28;20042;-71
2022/10/22 00:03:45;;;;;;;18.42;9.30;;;;;;;;;;4954543;28;20031;-68
2022/10/22 00:06:10;;;;;;;14.90;9.00;;;;;;;;;;4951357;28;20082;-72
2022/10/22 00:08:37;;;;;;;15.93;8.80;;;;;;;;;;4954021;28;20039;-72
2022/10/22 00:11:20;;;;;;;12.68;8.13;;;;;;;;;;4948670;28;20034;-72
2022/10/22 00:13:47;;;;;;;16.17;8.38;;;;;;;;;;4943279;29;20035;-69
2022/10/22 00:16:13;;;;;;;15.07;8.75;;;;;;;;;;4953002;28;20054;-69
2022/10/22 00:18:39;;;;;;;12.68;8.20;;;;;;;;;;4953793;28;20035;-68
2022/10/22 00:21:06;;;;;;;16.67;8.75;;;;;;;;;;4953890;28;20035;-70
2022/10/22 00:23:32;;;;;;;15.48;7.88;;;;;;;;;;4954276;28;20051;-69
2022/10/22 00:25:58;;;;;;;14.40;8.10;;;;;;;;;;4943182;28;20043;-68
2022/10/22 00:28:25;;;;;;;15.93;7.88;;;;;;;;;;4953333;29;20162;-70
2022/10/22 00:30:58;;;;;;;12.57;7.40;;;;;;;;;;4954246;28;20066;-70
2022/10/22 00:33:25;;;;;;;15.77;7.68;;;;;;;;;;4954107;28;20067;-69
2022/10/22 00:35:51;;;;;;;16.17;8.30;;;;;;;;;;4958643;28;20042;-69
2022/10/22 00:38:17;;;;;;;22.58;8.25;;;;;;;;;;4972949;28;20031;-69
2022/10/22 00:40:42;;;;;;;16.63;7.70;;;;;;;;;;4963853;28;20073;-70
2022/10/22 00:43:14;;;;;;;17.48;8.30;;;;;;;;;;4951918;28;20065;-69
2022/10/22 00:45:40;;;;;;;14.82;7.07;;;;;;;;;;4952943;28;20035;-70
2022/10/22 00:48:09;;;;;;;15.25;7.72;;;;;;;;;;4944910;28;20494;-68
2022/10/22 00:50:41;;;;;;;18.90;8.05;;;;;;;;;;4937214;28;20079;-70
2022/10/22 00:53:13;;;;;;;14.27;7.47;;;;;;;;;;4953354;28;20885;-71
2022/10/22 00:55:42;;;;;;;11.70;6.75;;;;;;;;;;4948665;28;20067;-69
2022/10/22 00:58:09;;;;;;;13.23;7.45;;;;;;;;;;4953433;28;20031;-70
2022/10/22 01:00:35;;;;;;;15.45;6.85;;;;;;;;;;4953727;28;20035;-70
2022/10/22 01:03:01;;;;;;;18.27;7.53;;;;;;;;;;4953942;28;20027;-69
2022/10/22 01:05:30;;;;;;;16.48;9.00;;;;;;;;;;4953761;28;20105;-70
2022/10/22 01:07:56;;;;;;;16.00;8.68;;;;;;;;;;4953647;28;20414;-71
2022/10/22 01:10:53;;;;;;;13.57;7.75;;;;;;;;;;4949842;28;20028;-68
2022/10/22 01:13:48;;;;;;;15.48;7.30;;;;;;;;;;4936221;29;20028;-68
2022/10/22 01:16:29;;;;;;;11.80;7.43;;;;;;;;;;4940840;28;20418;-68
2022/10/22 01:19:02;;;;;;;13.73;7.93;;;;;;;;;;4953664;28;20035;-68
2022/10/22 01:21:36;;;;;;;12.43;7.00;;;;;;;;;;4953327;28;20470;-70
2022/10/22 01:24:08;;;;;;;13.68;7.15;;;;;;;;;;4941841;28;20118;-70
2022/10/22 01:26:53;;;;;;;15.25;8.13;;;;;;;;;;4942446;28;20035;-68
2022/10/22 01:29:41;;;;;;;11.40;8.05;;;;;;;;;;4953514;29;20451;-70
2022/10/22 01:32:22;;;;;;;15.60;8.68;;;;;;;;;;4953701;28;20031;-68
2022/10/22 01:35:10;;;;;;;16.30;8.50;;;;;;;;;;4953488;28;20543;-70
2022/10/22 01:37:42;;;;;;;15.68;8.55;;;;;;;;;;4953460;28;20406;-70
2022/10/22 01:40:10;;;;;;;18.02;9.65;;;;;;;;;;4951455;28;20394;-68
2022/10/22 01:42:36;;;;;;;16.73;9.18;;;;;;;;;;4950085;28;20031;-70
2022/10/22 01:45:12;;;;;;;15.52;8.77;;;;;;;;;;4953276;29;20043;-69
2022/10/22 01:47:54;;;;;;;14.02;8.18;;;;;;;;;;4953260;28;20043;-68
2022/10/22 01:50:46;;;;;;;13.15;7.22;;;;;;;;;;4953441;29;20427;-70
2022/10/22 01:53:23;;;;;;;16.80;8.38;;;;;;;;;;4934037;29;20493;-68
2022/10/22 01:55:49;;;;;;;15.38;8.05;;;;;;;;;;4934659;28;20067;-67
2022/10/22 01:58:38;;;;;;;15.88;8.13;;;;;;;;;;4953269;28;20047;-69
2022/10/22 02:01:27;;;;;;;16.17;9.00;;;;;;;;;;4955471;28;20031;-70
2022/10/22 02:04:00;;;;;;;13.70;8.73;;;;;;;;;;4964833;28;20074;-69
2022/10/22 02:06:29;;;;;;;14.80;9.15;;;;;;;;;;4973581;28;20508;-71
2022/10/22 02:08:56;;;;;;;16.05;9.45;;;;;;;;;;4961596;28;20035;-70
2022/10/22 02:11:22;;;;;;;13.13;8.75;;;;;;;;;;4975757;28;20045;-70
2022/10/22 02:13:52;;;;;;;18.17;8.93;;;;;;;;;;4975604;28;20023;-70
2022/10/22 02:16:27;;;;;;;18.63;9.13;;;;;;;;;;4975507;28;20080;-71
2022/10/22 02:18:56;;;;;;;15.20;9.60;;;;;;;;;;4975672;28;20038;-70
2022/10/22 02:21:22;;;;;;;16.58;9.73;;;;;;;;;;4975532;28;20058;-69
2022/10/22 02:23:48;;;;;;;15.13;9.80;;;;;;;;;;4975072;28;20058;-72
2022/10/22 02:26:29;;;;;;;17.60;10.20;;;;;;;;;;4975675;28;20046;-70
2022/10/22 02:29:01;;;;;;;12.98;9.02;;;;;;;;;;4975651;28;20038;-70
2022/10/22 02:31:31;;;;;;;15.68;8.63;;;;;;;;;;4975443;28;20145;-69
2022/10/22 02:34:03;;;;;;;17.38;8.93;;;;;;;;;;4975620;28;20034;-71
2022/10/22 02:36:30;;;;;;;16.15;8.55;;;;;;;;;;4975276;28;20482;-71
2022/10/22 02:38:58;;;;;;;14.40;8.55;;;;;;;;;;4975288;28;20046;-66
2022/10/22 02:41:23;;;;;;;19.02;10.00;;;;;;;;;;4975375;28;20084;-69
2022/10/22 02:43:53;;;;;;;16.45;8.82;;;;;;;;;;4975500;28;20513;-69
2022/10/22 02:46:19;;;;;;;18.45;9.20;;;;;;;;;;4975203;28;20041;-70
2022/10/22 02:48:45;;;;;;;20.98;9.35;;;;;;;;;;4975043;28;20041;-70
2022/10/22 02:51:11;;;;;;;15.70;9.35;;;;;;;;;;4975066;28;20031;-67
2022/10/22 02:53:37;;;;;;;16.40;8.98;;;;;;;;;;4974977;28;20041;-71
2022/10/22 02:56:03;;;;;;;19.98;9.43;;;;;;;;;;4974971;28;20039;-69
2022/10/22 02:58:29;;;;;;;16.15;8.55;;;;;;;;;;4974524;28;20023;-69
2022/10/22 03:00:54;;;;;;;13.43;8.82;;;;;;;;;;4974660;28;20453;-70
2022/10/22 03:03:20;;;;;;;13.48;9.27;;;;;;;;;;4974749;28;20500;-70
2022/10/22 03:05:46;;;;;;;17.52;9.00;;;;;;;;;;4974594;28;20043;-69
2022/10/22 03:08:12;;;;;;;14.45;8.32;;;;;;;;;;4974629;28;20074;-70
2022/10/22 03:10:38;;;;;;;16.75;9.02;;;;;;;;;;4973853;28;20023;-70
2022/10/22 03:13:03;;;;;;;18.80;9.25;;;;;;;;;;4974542;28;20061;-70
2022/10/22 03:15:29;;;;;;;16.40;9.27;;;;;;;;;;4974421;28;20409;-69
2022/10/22 03:17:55;;;;;;;19.88;9.75;;;;;;;;;;4950109;28;20478;-71
2022/10/22 03:20:21;;;;;;;12.32;8.02;;;;;;;;;;4943747;29;20038;-68
2022/10/22 03:22:47;;;;;;;19.00;9.38;;;;;;;;;;4944913;29;20483;-71
2022/10/22 03:25:18;;;;;;;13.13;8.43;;;;;;;;;;4939465;29;20110;-69
2022/10/22 03:27:45;;;;;;;15.20;9.40;;;;;;;;;;4935745;29;20171;-69
2022/10/22 03:30:11;;;;;;;19.15;8.50;;;;;;;;;;4934758;29;20431;-68
2022/10/22 03:32:37;;;;;;;15.77;8.35;;;;;;;;;;4935733;29;20111;-70
2022/10/22 03:35:04;;;;;;;20.30;8.73;;;;;;;;;;4935985;29;20060;-68
2022/10/22 03:37:31;;;;;;;19.13;9.85;;;;;;;;;;4935427;29;20039;-69
2022/10/22 03:39:57;;;;;;;19.23;10.73;;;;;;;;;;4935345;29;20044;-71
2022/10/22 03:42:23;;;;;;;17.33;9.77;;;;;;;;;;4935671;29;20039;-70
2022/10/22 03:44:50;;;;;;;20.10;10.35;;;;;;;;;;4940316;29;20045;-70
2022/10/22 03:47:16;;;;;;;18.33;9.75;;;;;;;;;;4954457;28;20031;-70
2022/10/22 03:49:41;;;;;;;16.42;8.93;;;;;;;;;;4954361;29;20447;-70
2022/10/22 03:52:10;;;;;;;17.02;8.68;;;;;;;;;;4954372;29;20125;-69
2022/10/22 03:54:37;;;;;;;17.50;9.38;;;;;;;;;;4954734;28;20423;-69
2022/10/22 03:57:04;;;;;;;17.83;9.50;;;;;;;;;;4954525;29;20482;-70
2022/10/22 03:59:38;;;;;;;14.57;8.68;;;;;;;;;;4954286;28;20054;-71
2022/10/22 04:02:04;;;;;;;16.15;8.90;;;;;;;;;;4954605;28;20122;-68
2022/10/22 04:04:30;;;;;;;14.10;8.48;;;;;;;;;;4954258;28;20107;-70
2022/10/22 04:06:56;;;;;;;12.75;7.70;;;;;;;;;;4954624;28;20360;-71
2022/10/22 04:09:22;;;;;;;15.13;8.15;;;;;;;;;;4954274;28;20110;-68
2022/10/22 04:11:48;;;;;;;12.82;8.80;;;;;;;;;;4954133;29;20555;-69
2022/10/22 04:14:14;;;;;;;14.88;8.98;;;;;;;;;;4953855;28;20069;-67
2022/10/22 04:16:40;;;;;;;17.83;8.85;;;;;;;;;;4953865;28;20430;-69
2022/10/22 04:19:06;;;;;;;16.88;8.90;;;;;;;;;;4953354;28;20102;-69
2022/10/22 04:21:33;;;;;;;20.83;9.23;;;;;;;;;;4953945;28;20113;-69
2022/10/22 04:23:59;;;;;;;16.63;8.77;;;;;;;;;;4953938;28;20131;-69
2022/10/22 04:26:25;;;;;;;14.77;8.73;;;;;;;;;;4944204;28;20126;-68
2022/10/22 04:28:52;;;;;;;18.10;9.40;;;;;;;;;;4934853;29;20526;-71
2022/10/22 04:31:21;;;;;;;18.15;8.85;;;;;;;;;;4934581;29;20368;-68
2022/10/22 04:33:50;;;;;;;14.98;9.02;;;;;;;;;;4934312;29;20395;-69
2022/10/22 04:36:17;;;;;;;17.05;8.90;;;;;;;;;;4934280;29;20028;-68
2022/10/22 04:38:45;;;;;;;18.80;9.13;;;;;;;;;;4934427;29;20392;-69
2022/10/22 04:41:16;;;;;;;18.63;9.38;;;;;;;;;;4934743;29;20428;-69
2022/10/22 04:43:43;;;;;;;16.60;10.75;;;;;;;;;;4934863;29;20032;-67
2022/10/22 04:46:09;;;;;;;24.15;10.43;;;;;;;;;;4934855;29;20411;-69
2022/10/22 04:48:36;;;;;;;21.23;9.32;;;;;;;;;;4934334;29;20035;-69
2022/10/22 04:51:04;;;;;;;16.95;9.52;;;;;;;;;;4934452;29;20384;-70
2022/10/22 04:53:30;;;;;;;19.77;9.38;;;;;;;;;;4946613;28;20035;-68
2022/10/22 04:56:20;;;;;;;24.70;10.48;;;;;;;;;;4954257;28;20122;-70
2022/10/22 04:58:52;;;;;;;24.20;9.38;;;;;;;;;;4952986;28;20035;-68
2022/10/22 05:01:20;;;;;;;17.60;10.63;;;;;;;;;;4945117;28;20036;-70
2022/10/22 05:03:48;;;;;;;27.58;10.93;;;;;;;;;;4935136;29;20087;-70
2022/10/22 05:06:14;;;;;;;21.38;11.95;;;;;;;;;;4934889;29;20050;-68
2022/10/22 05:08:42;;;;;;;24.73;11.15;;;;;;;;;;4935155;29;20032;-67
2022/10/22 05:11:16;;;;;;;17.88;10.23;;;;;;;;;;4942725;29;20509;-68
2022/10/22 05:13:42;;;;;;;18.92;9.77;;;;;;;;;;4954629;29;20063;-67
2022/10/22 05:16:08;;;;;;;18.88;10.43;;;;;;;;;;4954112;29;20379;-68
2022/10/22 05:18:38;;;;;;;16.55;9.57;;;;;;;;;;4953614;28;20191;-67
2022/10/22 05:21:08;;;;;;;20.70;11.05;;;;;;;;;;4953970;28;20031;-70
2022/10/22 05:23:34;;;;;;;17.58;10.50;;;;;;;;;;4954032;28;20074;-70
2022/10/22 05:26:05;;;;;;;21.52;9.57;;;;;;;;;;4954126;29;20474;-68
2022/10/22 05:28:32;;;;;;;16.20;11.18;;;;;;;;;;4953616;28;20082;-69
2022/10/22 05:30:59;;;;;;;20.83;12.82;;;;;;;;;;4951852;28;20039;-68
2022/10/22 05:33:27;;;;;;;18.70;11.10;;;;;;;;;;4944423;28;20102;-68
2022/10/22 05:35:53;;;;;;;21.92;11.43;;;;;;;;;;4938562;29;20118;-68
2022/10/22 05:38:20;;;;;;;18.52;10.57;;;;;;;;;;4938379;29;20051;-70
2022/10/22 05:40:45;;;;;;;19.45;9.90;;;;;;;;;;4938451;29;20028;-70
2022/10/22 05:43:12;;;;;;;29.08;10.48;;;;;;;;;;4938752;29;20042;-69
2022/10/22 05:45:39;;;;;;;16.70;9.90;;;;;;;;;;4938809;29;20059;-66
2022/10/22 05:48:07;;;;;;;15.85;9.02;;;;;;;;;;4938466;29;20031;-68
2022/10/22 05:50:36;;;;;;;17.08;9.60;;;;;;;;;;4938466;29;20537;-68
2022/10/22 05:53:03;;;;;;;19.83;9.93;;;;;;;;;;4938421;29;20152;-69
2022/10/22 05:55:29;;;;;;;18.75;10.05;;;;;;;;;;4938048;29;20047;-68
2022/10/22 05:57:55;;;;;;;18.55;10.23;;;;;;;;;;4938190;29;20391;-69
2022/10/22 06:00:21;;;;;;;16.20;9.93;;;;;;;;;;4938934;29;20055;-69
2022/10/22 06:02:50;;;;;;;27.52;9.90;;;;;;;;;;4954261;29;20042;-71
2022/10/22 06:05:16;;;;;;;17.70;9.15;;;;;;;;;;4957528;29;20578;-68
2022/10/22 06:07:42;;;;;;;18.00;10.15;;;;;;;;;;4956993;29;20122;-69
2022/10/22 06:10:14;;;;;;;18.58;10.30;;;;;;;;;;4955761;29;20035;-69
2022/10/22 06:12:40;;;;;;;16.80;9.30;;;;;;;;;;4956948;29;20042;-69
2022/10/22 06:15:06;;;;;;;22.63;9.32;;;;;;;;;;4949750;28;20379;-70
2022/10/22 06:17:32;;;;;;;20.10;9.05;;;;;;;;;;4937932;29;20125;-69
2022/10/22 06:19:58;;;;;;;22.00;10.25;;;;;;;;;;4939735;29;20465;-67
2022/10/22 06:22:24;;;;;;;19.17;9.70;;;;;;;;;;4939428;29;20737;-70
2022/10/22 06:24:51;;;;;;;19.40;10.20;;;;;;;;;;4944568;29;20028;-69
2022/10/22 06:27:17;;;;;;;21.65;9.40;;;;;;;;;;4944927;29;20042;-69
2022/10/22 06:29:42;;;;;;;13.98;9.70;;;;;;;;;;4948926;28;20032;-68
2022/10/22 06:32:08;;;;;;;19.35;10.82;;;;;;;;;;4955306;28;20042;-69
2022/10/22 06:34:34;;;;;;;16.98;10.00;;;;;;;;;;4956846;28;20047;-67
2022/10/22 06:37:00;;;;;;;18.77;10.70;;;;;;;;;;4956880;28;20101;-67
2022/10/22 06:39:25;;;;;;;18.48;10.50;;;;;;;;;;4956801;29;20053;-68
2022/10/22 06:41:51;;;;;;;26.23;10.85;;;;;;;;;;4956601;28;20038;-68
2022/10/22 06:44:19;;;;;;;25.25;10.95;;;;;;;;;;4955318;28;20050;-69
2022/10/22 06:46:47;;;;;;;18.23;10.45;;;;;;;;;;4956386;29;20047;-69
2022/10/22 06:49:14;;;;;;;19.77;11.18;;;;;;;;;;4954131;28;20533;-69
2022/10/22 06:51:40;;;;;;;19.30;10.60;;;;;;;;;;4944538;29;20091;-69
2022/10/22 06:54:06;;;;;;;22.92;12.05;;;;;;;;;;4944888;28;20031;-68
2022/10/22 06:56:31;;;;;;;20.98;11.63;;;;;;;;;;4946261;28;20130;-69
2022/10/22 06:58:58;;;;;;;18.00;10.40;;;;;;;;;;4945310;29;20028;-73
2022/10/22 07:01:26;;;;;;;16.92;10.15;;;;;;;;;;4945263;28;20050;-69
2022/10/22 07:03:53;;;;;;;20.38;11.57;;;;;;;;;;4949207;28;20023;-72
2022/10/22 07:06:20;;;;;;;18.52;10.50;;;;;;;;;;4948702;28;20662;-70
2022/10/22 07:08:46;;;;;;;22.20;11.60;;;;;;;;;;4956032;28;20038;-72
2022/10/22 07:11:15;;;;;;;21.35;10.77;;;;;;;;;;4951103;29;20039;-71
2022/10/22 07:13:42;;;;;;;19.98;11.65;;;;;;;;;;4945142;28;20031;-74
2022/10/22 07:16:08;;;;;;;20.45;11.90;;;;;;;;;;4947598;29;20019;-69
2022/10/22 07:18:35;;;;;;;25.75;12.00;;;;;;;;;;4942149;29;20106;-73
2022/10/22 07:21:02;;;;;;;22.90;11.85;;;;;;;;;;4955873;28;20070;-74
2022/10/22 07:23:28;;;;;;;18.17;11.18;;;;;;;;;;4947801;28;20044;-74
2022/10/22 07:25:54;;;;;;;20.42;12.20;;;;;;;;;;4940798;29;20410;-72
2022/10/22 07:28:20;;;;;;;23.95;12.80;;;;;;;;;;4938249;28;20032;-74
2022/10/22 07:30:46;;;;;;;17.50;11.77;;;;;;;;;;4936548;29;20039;-72
2022/10/22 07:33:12;;;;;;;20.50;12.27;;;;;;;;;;4945196;29;20042;-73
2022/10/22 07:35:38;;;;;;;25.45;13.20;;;;;;;;;;4954896;28;20044;-71
2022/10/22 07:38:06;;;;;;;18.45;11.15;;;;;;;;;;4954881;28;20035;-71
2022/10/22 07:40:33;;;;;;;18.60;11.48;;;;;;;;;;4954948;28;20027;-72
2022/10/22 07:42:59;;;;;;;17.23;11.48;;;;;;;;;;4954591;29;20046;-73
2022/10/22 07:45:24;;;;;;;24.15;12.18;;;;;;;;;;4954887;28;20086;-70
2022/10/22 07:47:50;;;;;;;17.45;11.18;;;;;;;;;;4955063;28;20490;-70
2022/10/22 07:50:17;;;;;;;21.23;11.75;;;;;;;;;;4954496;29;20047;-73
2022/10/22 07:52:43;;;;;;;16.73;10.40;;;;;;;;;;4955351;28;20027;-73
2022/10/22 07:55:09;;;;;;;15.98;10.45;;;;;;;;;;4954394;28;20114;-74
2022/10/22 07:57:36;;;;;;;15.75;9.70;;;;;;;;;;4953384;29;20039;-74
2022/10/22 08:00:06;;;;;;;21.00;10.88;;;;;;;;;;4954537;28;20035;-71
2022/10/22 08:02:37;;;;;;;16.27;9.70;;;;;;;;;;4954326;28;20050;-71
2022/10/22 08:05:04;;;;;;;23.02;10.48;;;;;;;;;;4954955;29;20031;-71
2022/10/22 08:07:30;;;;;;;29.60;12.95;;;;;;;;;;4954979;28;20059;-74
2022/10/22 08:09:56;;;;;;;19.95;10.35;;;;;;;;;;4954705;28;20113;-69
2022/10/22 08:12:22;;;;;;;19.23;10.40;;;;;;;;;;4954515;29;20064;-71
2022/10/22 08:14:47;;;;;;;14.15;9.43;;;;;;;;;;4953998;29;20057;-75
2022/10/22 08:17:13;;;;;;;17.85;9.93;;;;;;;;;;4954596;28;20058;-70
2022/10/22 08:19:39;;;;;;;16.60;10.27;;;;;;;;;;4953912;28;20039;-70
2022/10/22 08:22:05;;;;;;;16.20;9.73;;;;;;;;;;4952502;29;20058;-75
2022/10/22 08:24:31;;;;;;;16.80;10.10;;;;;;;;;;4953678;28;20066;-70
2022/10/22 08:26:57;;;;;;;14.50;9.68;;;;;;;;;;4954917;29;20426;-70
2022/10/22 08:29:25;;;;;;;15.52;9.38;;;;;;;;;;4954643;28;20035;-70
2022/10/22 08:31:52;;;;;;;17.70;9.68;;;;;;;;;;4953029;29;20371;-72
2022/10/22 08:34:19;;;;;;;17.00;8.52;;;;;;;;;;4960257;28;20030;-69
2022/10/22 08:36:45;;;;;;;16.08;9.65;;;;;;;;;;4974027;28;20426;-73
2022/10/22 08:39:11;;;;;;;17.58;9.88;;;;;;;;;;4973381;28;20043;-74
2022/10/22 08:41:43;;;;;;;16.55;10.70;;;;;;;;;;4962813;28;20519;-71
2022/10/22 08:44:41;;;;;;;19.30;10.32;;;;;;;;;;4954025;29;20386;-78
2022/10/22 08:47:32;;;;;;;14.00;9.07;;;;;;;;;;4953835;28;20047;-72
2022/10/22 08:49:59;;;;;;;15.23;8.68;;;;;;;;;;4953837;29;20067;-75
2022/10/22 08:52:25;;;;;;;15.80;8.57;;;;;;;;;;4953949;28;20038;-74
2022/10/22 08:55:00;;;;;;;24.45;9.88;;;;;;;;;;4953096;28;20027;-76
2022/10/22 08:57:57;;;;;;;16.70;9.48;;;;;;;;;;4953659;28;20095;-75
2022/10/22 09:00:58;;;;;;;23.02;8.77;;;;;;;;;;4905345;29;20039;-75
2022/10/22 09:03:52;;;;;;;20.08;9.00;;;;;;;;;;4944026;29;20049;-74
2022/10/22 09:06:21;;;;;;;18.92;10.05;;;;;;;;;;4953342;29;20479;-74
2022/10/22 09:08:47;;;;;;;16.40;10.38;;;;;;;;;;4952066;28;20039;-74
2022/10/22 09:11:35;;;;;;;18.75;10.18;;;;;;;;;;4938617;29;20140;-75
2022/10/22 09:14:03;;;;;;;13.40;8.43;;;;;;;;;;4950836;29;20035;-74
2022/10/22 09:16:41;;;;;;;19.08;9.50;;;;;;;;;;4941246;28;20104;-71
2022/10/22 09:19:07;;;;;;;16.23;10.77;;;;;;;;;;4938817;29;20039;-72
2022/10/22 09:21:45;;;;;;;18.88;10.18;;;;;;;;;;4947105;29;20043;-73
2022/10/22 09:24:37;;;;;;;15.50;10.32;;;;;;;;;;4948308;28;20118;-74
2022/10/22 09:27:12;;;;;;;18.40;10.88;;;;;;;;;;4947774;29;20398;-73
2022/10/22 09:29:39;;;;;;;20.63;11.18;;;;;;;;;;4947381;29;20047;-75
2022/10/22 09:32:05;;;;;;;18.52;10.88;;;;;;;;;;4954508;28;20509;-73
2022/10/22 09:34:32;;;;;;;17.25;10.30;;;;;;;;;;4956006;28;20063;-73
2022/10/22 09:37:07;;;;;;;17.92;11.05;;;;;;;;;;4951016;28;20028;-74
2022/10/22 09:39:37;;;;;;;17.70;11.48;;;;;;;;;;4942669;29;20047;-73
2022/10/22 09:42:03;;;;;;;14.38;10.05;;;;;;;;;;4936809;29;20402;-74
2022/10/22 09:44:33;;;;;;;15.48;9.30;;;;;;;;;;4940846;29;20035;-73
2022/10/22 09:47:25;;;;;;;14.82;8.68;;;;;;;;;;4948697;28;20043;-72
2022/10/22 09:50:09;;;;;;;14.07;9.60;;;;;;;;;;4956290;28;20035;-74
2022/10/22 09:52:35;;;;;;;17.92;9.65;;;;;;;;;;4953381;28;20039;-72
2022/10/22 09:55:05;;;;;;;14.90;8.52;;;;;;;;;;4943481;28;20375;-72
2022/10/22 09:57:31;;;;;;;14.68;8.40;;;;;;;;;;4955812;28;20042;-75
2022/10/22 09:59:57;;;;;;;15.27;8.70;;;;;;;;;;4954695;29;20053;-74
2022/10/22 10:02:27;;;;;;;17.25;8.98;;;;;;;;;;4936621;29;20447;-72
2022/10/22 10:04:55;;;;;;;14.60;8.65;;;;;;;;;;4936622;29;20036;-74
2022/10/22 10:07:24;;;;;;;12.07;7.88;;;;;;;;;;4934070;29;20114;-74
2022/10/22 10:09:52;;;;;;;14.10;8.60;;;;;;;;;;4939468;29;20038;-74
2022/10/22 10:12:49;;;;;;;13.85;8.27;;;;;;;;;;4955118;28;20039;-72
2022/10/22 10:15:27;;;;;;;14.23;8.93;;;;;;;;;;4955304;29;20114;-72
2022/10/22 10:18:19;;;;;;;12.80;8.13;;;;;;;;;;4955409;28;20070;-73
2022/10/22 10:20:57;;;;;;;16.17;9.70;;;;;;;;;;4933674;28;20071;-75
2022/10/22 10:23:42;;;;;;;16.17;9.88;;;;;;;;;;4954577;29;20062;-73
2022/10/22 10:26:32;;;;;;;13.00;8.98;;;;;;;;;;4955906;28;20039;-74
2022/10/22 10:29:24;;;;;;;17.90;9.23;;;;;;;;;;4954869;28;20028;-76
2022/10/22 10:32:20;;;;;;;15.68;8.88;;;;;;;;;;4956382;29;20066;-73
2022/10/22 10:35:17;;;;;;;16.98;9.98;;;;;;;;;;4955734;29;20027;-72
2022/10/22 10:37:54;;;;;;;17.02;9.32;;;;;;;;;;4956085;29;20042;-72
2022/10/22 10:40:46;;;;;;;14.50;8.80;;;;;;;;;;4955213;29;20133;-72
2022/10/22 10:43:18;;;;;;;13.00;9.50;;;;;;;;;;4955671;28;20044;-72
2022/10/22 10:46:12;;;;;;;16.17;8.93;;;;;;;;;;4956495;28;20040;-70
2022/10/22 10:48:47;;;;;;;14.30;10.05;;;;;;;;;;4955828;29;20059;-72
2022/10/22 10:51:48;;;;;;;14.68;10.45;;;;;;;;;;4956114;29;20031;-73
2022/10/22 10:54:38;;;;;;;14.68;9.85;;;;;;;;;;4954812;28;20062;-72
2022/10/22 10:57:10;;;;;;;15.68;9.93;;;;;;;;;;4955330;29;20086;-71
2022/10/22 10:59:38;;;;;;;14.00;8.57;;;;;;;;;;4956500;29;20046;-74
2022/10/22 11:02:43;;;;;;;21.02;10.60;;;;;;;;;;4956515;28;20471;-73
2022/10/22 11:05:31;;;;;;;15.90;9.40;;;;;;;;;;4956289;28;20042;-71
2022/10/22 11:08:17;;;;;;;15.98;8.95;;;;;;;;;;4956046;29;20046;-73
2022/10/22 11:10:54;;;;;;;15.77;9.60;;;;;;;;;;4955966;29;20394;-73
2022/10/22 11:13:29;;;;;;;16.00;9.43;;;;;;;;;;4956449;28;20070;-75
2022/10/22 11:16:16;;;;;;;17.13;11.48;;;;;;;;;;4956043;28;20470;-77
2022/10/22 11:19:04;;;;;;;17.05;12.25;;;;;;;;;;4956221;29;20054;-76
2022/10/22 11:21:30;;;;;;;18.40;9.13;;;;;;;;;;4956071;28;20035;-73
2022/10/22 11:24:27;;;;;;;12.35;7.45;;;;;;;;;;4956020;29;20134;-73
2022/10/22 11:26:53;;;;;;;19.25;8.13;;;;;;;;;;4954924;28;20098;-75
2022/10/22 11:29:25;;;;;;;13.20;8.30;;;;;;;;;;4955872;28;20078;-76
2022/10/22 11:31:54;;;;;;;14.05;8.68;;;;;;;;;;4955219;28;20078;-76
2022/10/22 11:34:54;;;;;;;16.65;8.18;;;;;;;;;;4955798;28;20031;-74
2022/10/22 11:37:26;;;;;;;12.55;7.65;;;;;;;;;;4942793;28;20121;-75
2022/10/22 11:40:01;;;;;;;13.52;8.95;;;;;;;;;;4955295;28;20039;-74
2022/10/22 12:36:16;;;;;;;15.45;8.10;;;;;;;;;;4400516;29;20064;-75
2022/10/22 12:38:46;;;;;;;18.15;8.80;;;;;;;;;;4878978;29;20094;-71
2022/10/22 12:41:12;;;;;;;15.07;8.75;;;;;;;;;;4893495;29;20501;-73
2022/10/22 12:43:40;;;;;;;13.88;7.90;;;;;;;;;;4897444;29;20045;-74
2022/10/22 12:46:15;;;;;;;15.77;7.80;;;;;;;;;;4897367;29;20025;-72
2022/10/22 12:48:44;;;;;;;11.93;8.13;;;;;;;;;;4897454;29;20037;-72
2022/10/22 12:51:16;;;;;;;12.75;8.57;;;;;;;;;;4897670;29;20558;-72
2022/10/22 12:53:46;;;;;;;11.30;7.82;;;;;;;;;;4896592;29;20413;-72
2022/10/22 12:56:15;;;;;;;15.52;8.40;;;;;;;;;;4864938;29;20037;-73
2022/10/22 12:58:45;;;;;;;13.10;7.72;;;;;;;;;;4897273;29;20033;-73
2022/10/22 13:01:13;;;;;;;13.73;7.45;;;;;;;;;;4896635;29;20033;-75
2022/10/22 13:03:43;;;;;;;11.63;7.80;;;;;;;;;;4895818;29;20056;-70
2022/10/22 13:06:18;;;;;;;13.77;7.35;;;;;;;;;;4896502;29;20039;-72
2022/10/22 13:09:03;;;;;;;14.30;7.75;;;;;;;;;;4878776;29;20099;-72
2022/10/22 13:12:05;;;;;;;10.57;6.90;;;;;;;;;;4895877;29;20500;-74
2022/10/22 13:14:33;;;;;;;13.88;7.38;;;;;;;;;;4867379;29;20084;-74
2022/10/22 13:17:40;;;;;;;14.38;7.10;;;;;;;;;;4897429;29;20364;-72
2022/10/22 13:20:22;;;;;;;12.40;7.18;;;;;;;;;;4821663;29;20042;-73
2022/10/22 13:22:59;;;;;;;9.75;7.50;;;;;;;;;;4821640;29;20038;-74
2022/10/22 13:25:38;;;;;;;13.60;7.53;;;;;;;;;;4870800;29;20051;-72
2022/10/22 13:28:20;;;;;;;18.33;9.38;;;;;;;;;;4897486;29;20048;-73
2022/10/22 13:30:59;;;;;;;15.23;7.68;;;;;;;;;;4897096;29;20505;-73
2022/10/22 13:33:40;;;;;;;12.07;7.63;;;;;;;;;;4880626;29;20065;-72
2022/10/22 13:36:07;;;;;;;13.85;7.25;;;;;;;;;;4897253;29;20116;-71
2022/10/22 13:38:33;;;;;;;12.27;6.90;;;;;;;;;;4896981;29;20043;-72
2022/10/22 13:41:00;;;;;;;16.55;9.55;;;;;;;;;;4897101;29;20032;-73
2022/10/22 13:43:26;;;;;;;10.52;7.50;;;;;;;;;;4878260;29;20377;-71
2022/10/22 13:45:56;;;;;;;11.23;7.10;;;;;;;;;;4877931;29;20048;-72
2022/10/22 13:48:24;;;;;;;13.73;7.10;;;;;;;;;;4878145;29;20113;-71
2022/10/22 13:50:51;;;;;;;9.60;6.78;;;;;;;;;;4878226;29;20064;-72
2022/10/22 13:53:22;;;;;;;13.35;7.43;;;;;;;;;;4878445;29;20092;-72
2022/10/22 13:55:51;;;;;;;11.82;7.40;;;;;;;;;;4882284;29;20500;-72
2022/10/22 13:58:20;;;;;;;14.60;7.57;;;;;;;;;;4881293;29;20056;-72
2022/10/22 14:00:49;;;;;;;10.10;6.85;;;;;;;;;;4881744;29;20056;-72
2022/10/22 14:03:19;;;;;;;11.32;7.15;;;;;;;;;;4881237;29;20161;-73
2022/10/22 14:05:46;;;;;;;12.23;6.55;;;;;;;;;;4881391;29;20424;-72
2022/10/22 14:08:15;;;;;;;13.73;7.53;;;;;;;;;;4881811;29;20029;-74
2022/10/22 14:10:41;;;;;;;14.90;7.45;;;;;;;;;;4881020;29;20096;-74
2022/10/22 14:13:14;;;;;;;9.50;6.72;;;;;;;;;;4881071;29;20033;-73
2022/10/22 14:15:42;;;;;;;15.82;8.07;;;;;;;;;;4881277;29;20037;-70
2022/10/22 14:18:14;;;;;;;13.90;7.35;;;;;;;;;;4881474;29;20034;-70
2022/10/22 14:20:41;;;;;;;11.23;7.67;;;;;;;;;;4881614;29;20037;-71
2022/10/22 14:23:19;;;;;;;13.98;6.88;;;;;;;;;;4881054;29;20044;-71
2022/10/22 14:25:46;;;;;;;11.50;7.30;;;;;;;;;;4881296;29;20033;-74
2022/10/22 14:28:12;;;;;;;13.13;7.63;;;;;;;;;;4881461;29;20033;-72
2022/10/22 14:30:39;;;;;;;11.75;6.43;;;;;;;;;;4881099;29;20095;-74
2022/10/22 14:33:17;;;;;;;10.32;6.50;;;;;;;;;;4881451;29;20446;-71
2022/10/22 14:35:43;;;;;;;11.32;7.57;;;;;;;;;;4880429;29;20049;-73
2022/10/22 14:38:09;;;;;;;9.25;6.38;;;;;;;;;;4880982;29;20041;-74
2022/10/22 14:40:37;;;;;;;9.32;6.22;;;;;;;;;;4880867;29;20447;-72
2022/10/22 14:43:04;;;;;;;11.38;5.93;;;;;;;;;;4880768;29;20404;-73
2022/10/22 14:45:30;;;;;;;7.30;6.00;;;;;;;;;;4881945;29;20310;-70
2022/10/22 14:47:56;;;;;;;10.05;6.20;;;;;;;;;;4897685;29;20051;-74
2022/10/22 14:50:24;;;;;;;9.45;6.38;;;;;;;;;;4899483;29;20033;-72
2022/10/22 14:52:50;;;;;;;8.70;6.50;;;;;;;;;;4898231;29;20044;-75
2022/10/22 14:55:17;;;;;;;9.40;6.28;;;;;;;;;;4881993;29;20060;-71
2022/10/22 14:57:44;;;;;;;13.05;6.95;;;;;;;;;;4886033;29;20488;-72
2022/10/22 15:00:13;;;;;;;11.00;6.70;;;;;;;;;;4880517;29;20400;-72
2022/10/22 15:02:39;;;;;;;13.15;7.72;;;;;;;;;;4880713;29;20025;-71
2022/10/22 15:05:05;;;;;;;11.32;7.10;;;;;;;;;;4879677;29;20488;-72
2022/10/22 15:07:31;;;;;;;9.75;7.32;;;;;;;;;;4880036;29;20097;-71
2022/10/22 15:09:57;;;;;;;12.15;7.07;;;;;;;;;;4880252;29;20081;-72
2022/10/22 15:12:23;;;;;;;16.08;8.30;;;;;;;;;;4880508;29;20041;-72
2022/10/22 15:14:50;;;;;;;11.05;7.03;;;;;;;;;;4880372;29;20037;-70
2022/10/22 15:17:17;;;;;;;10.18;7.03;;;;;;;;;;4880629;29;20039;-71
2022/10/22 15:19:43;;;;;;;13.05;6.90;;;;;;;;;;4880573;29;20029;-70
2022/10/22 15:22:11;;;;;;;13.02;7.57;;;;;;;;;;4880046;29;20484;-71
2022/10/22 15:24:37;;;;;;;11.43;7.28;;;;;;;;;;4880438;29;20094;-70
2022/10/22 15:27:03;;;;;;;12.60;7.22;;;;;;;;;;4880256;29;20040;-70
2022/10/22 15:29:31;;;;;;;13.23;7.43;;;;;;;;;;4880483;29;20032;-71
2022/10/22 15:31:59;;;;;;;9.80;6.88;;;;;;;;;;4863780;29;20484;-72
2022/10/22 15:34:28;;;;;;;13.77;8.10;;;;;;;;;;4879775;29;20037;-72
2022/10/22 15:36:59;;;;;;;17.55;9.35;;;;;;;;;;4879564;29;20140;-71
2022/10/22 15:39:25;;;;;;;15.88;9.65;;;;;;;;;;4880058;29;20040;-69
2022/10/22 15:41:52;;;;;;;21.40;9.60;;;;;;;;;;4879883;29;20428;-70